sensor_id;sensor_type;location;lat;lon;timestamp;pressure;altitude;pressure_sealevel;temperature;humidity
42603;BME280;28233;55.748;48.752;2023-03-01T00:01:19;97244.09;;;-3.20;95.61
42603;BME280;28233;55.748;48.752;2023-03-01T00:03:22;97247.63;;;-3.20;95.70
42603;BME280;28233;55.748;48.752;2023-03-01T00:05:25;97238.28;;;-3.27;95.47
42603;BME280;28233;55.748;48.752;2023-03-01T00:07:28;97244.75;;;-3.28;95.65
42603;BME280;28233;55.748;48.752;2023-03-01T00:09:30;97241.28;;;-3.29;95.80
42603;BME280;28233;55.748;48.752;2023-03-01T00:11:34;97243.66;;;-3.27;95.71
42603;BME280;28233;55.748;48.752;2023-03-01T00:13:37;97240.00;;;-3.36;95.41
42603;BME280;28233;55.748;48.752;2023-03-01T00:15:40;97238.78;;;-3.44;95.50
42603;BME280;28233;55.748;48.752;2023-03-01T00:17:43;97232.59;;;-3.45;95.47
42603;BME280;28233;55.748;48.752;2023-03-01T00:19:46;97237.97;;;-3.45;95.99
42603;BME280;28233;55.748;48.752;2023-03-01T00:21:49;97235.28;;;-3.45;95.74
42603;BME280;28233;55.748;48.752;2023-03-01T00:23:52;97234.19;;;-3.44;96.35
42603;BME280;28233;55.748;48.752;2023-03-01T00:25:55;97228.81;;;-3.44;95.82
42603;BME280;28233;55.748;48.752;2023-03-01T00:27:58;97230.19;;;-3.46;95.57
42603;BME280;28233;55.748;48.752;2023-03-01T00:30:01;97221.88;;;-3.45;96.12
42603;BME280;28233;55.748;48.752;2023-03-01T00:32:06;97222.66;;;-3.44;95.64
42603;BME280;28233;55.748;48.752;2023-03-01T00:34:09;97221.06;;;-3.45;96.02
42603;BME280;28233;55.748;48.752;2023-03-01T00:36:14;97219.97;;;-3.44;95.63
42603;BME280;28233;55.748;48.752;2023-03-01T00:38:17;97206.38;;;-3.53;95.18
42603;BME280;28233;55.748;48.752;2023-03-01T00:40:20;97210.16;;;-3.54;95.05
42603;BME280;28233;55.748;48.752;2023-03-01T00:42:24;97210.97;;;-3.53;95.30
42603;BME280;28233;55.748;48.752;2023-03-01T00:44:27;97208.78;;;-3.51;94.92
42603;BME280;28233;55.748;48.752;2023-03-01T00:46:30;97206.63;;;-3.49;94.65
42603;BME280;28233;55.748;48.752;2023-03-01T00:48:35;97211.72;;;-3.48;94.86
42603;BME280;28233;55.748;48.752;2023-03-01T00:50:38;97202.63;;;-3.52;94.46
42603;BME280;28233;55.748;48.752;2023-03-01T00:52:41;97198.63;;;-3.54;94.50
42603;BME280;28233;55.748;48.752;2023-03-01T00:54:43;97198.84;;;-3.51;94.16
42603;BME280;28233;55.748;48.752;2023-03-01T00:56:46;97192.41;;;-3.50;94.42
42603;BME280;28233;55.748;48.752;2023-03-01T00:58:49;97203.94;;;-3.49;94.24
42603;BME280;28233;55.748;48.752;2023-03-01T01:00:52;97205.25;;;-3.47;93.84
42603;BME280;28233;55.748;48.752;2023-03-01T01:02:55;97205.25;;;-3.47;93.91
42603;BME280;28233;55.748;48.752;2023-03-01T01:04:58;97205.25;;;-3.47;93.95
42603;BME280;28233;55.748;48.752;2023-03-01T01:07:00;97206.03;;;-3.46;93.59
42603;BME280;28233;55.748;48.752;2023-03-01T01:09:05;97199.88;;;-3.47;93.84
42603;BME280;28233;55.748;48.752;2023-03-01T01:11:10;97196.13;;;-3.46;93.86
42603;BME280;28233;55.748;48.752;2023-03-01T01:13:13;97198.84;;;-3.51;93.74
42603;BME280;28233;55.748;48.752;2023-03-01T01:15:16;97192.47;;;-3.55;93.39
42603;BME280;28233;55.748;48.752;2023-03-01T01:17:19;97192.47;;;-3.55;93.84
42603;BME280;28233;55.748;48.752;2023-03-01T01:19:23;97198.13;;;-3.56;93.23
42603;BME280;28233;55.748;48.752;2023-03-01T01:21:26;97184.47;;;-3.60;93.11
42603;BME280;28233;55.748;48.752;2023-03-01T01:23:29;97184.75;;;-3.62;93.44
42603;BME280;28233;55.748;48.752;2023-03-01T01:25:35;97177.56;;;-3.66;93.32
42603;BME280;28233;55.748;48.752;2023-03-01T01:27:38;97181.03;;;-3.66;93.06
42603;BME280;28233;55.748;48.752;2023-03-01T01:29:40;97180.59;;;-3.73;92.77
42603;BME280;28233;55.748;48.752;2023-03-01T01:31:44;97184.88;;;-3.72;92.33
42603;BME280;28233;55.748;48.752;2023-03-01T01:33:47;97180.34;;;-3.76;91.98
42603;BME280;28233;55.748;48.752;2023-03-01T01:35:49;97184.47;;;-3.84;92.36
42603;BME280;28233;55.748;48.752;2023-03-01T01:37:52;97176.94;;;-3.82;92.19
42603;BME280;28233;55.748;48.752;2023-03-01T01:39:54;97176.66;;;-3.80;92.42
42603;BME280;28233;55.748;48.752;2023-03-01T01:41:57;97180.16;;;-3.80;92.40
42603;BME280;28233;55.748;48.752;2023-03-01T01:44:20;97170.00;;;-3.83;91.81
42603;BME280;28233;55.748;48.752;2023-03-01T01:46:30;97164.91;;;-3.85;92.68
42603;BME280;28233;55.748;48.752;2023-03-01T01:48:39;97162.16;;;-3.79;92.49
42603;BME280;28233;55.748;48.752;2023-03-01T01:50:44;97162.41;;;-3.76;92.44
42603;BME280;28233;55.748;48.752;2023-03-01T01:52:48;97171.44;;;-3.72;92.58
42603;BME280;28233;55.748;48.752;2023-03-01T01:55:25;97164.25;;;-3.76;91.65
42603;BME280;28233;55.748;48.752;2023-03-01T01:57:35;97176.66;;;-3.80;91.91
42603;BME280;28233;55.748;48.752;2023-03-01T01:59:43;97170.25;;;-3.85;91.93
42603;BME280;28233;55.748;48.752;2023-03-01T02:01:48;97168.16;;;-3.88;92.37
42603;BME280;28233;55.748;48.752;2023-03-01T02:03:51;97165.19;;;-3.86;92.31
42603;BME280;28233;55.748;48.752;2023-03-01T02:05:58;97167.91;;;-3.91;91.82
42603;BME280;28233;55.748;48.752;2023-03-01T02:08:04;97161.25;;;-3.94;92.15
42603;BME280;28233;55.748;48.752;2023-03-01T02:10:08;97158.34;;;-3.97;91.78
42603;BME280;28233;55.748;48.752;2023-03-01T02:12:11;97160.78;;;-4.01;92.49
42603;BME280;28233;55.748;48.752;2023-03-01T02:14:15;97154.91;;;-4.03;92.88
42603;BME280;28233;55.748;48.752;2023-03-01T02:16:18;97148.81;;;-4.09;93.04
42603;BME280;28233;55.748;48.752;2023-03-01T02:18:22;97150.13;;;-4.06;93.26
42603;BME280;28233;55.748;48.752;2023-03-01T02:20:27;97150.63;;;-4.04;93.36
42603;BME280;28233;55.748;48.752;2023-03-01T02:22:36;97146.84;;;-4.03;93.50
42603;BME280;28233;55.748;48.752;2023-03-01T02:24:47;97152.50;;;-4.05;93.43
42603;BME280;28233;55.748;48.752;2023-03-01T02:26:54;97141.50;;;-4.03;93.32
42603;BME280;28233;55.748;48.752;2023-03-01T02:28:57;97151.66;;;-4.00;93.65
42603;BME280;28233;55.748;48.752;2023-03-01T02:31:01;97153.25;;;-3.99;93.63
42603;BME280;28233;55.748;48.752;2023-03-01T02:33:25;97149.28;;;-4.01;93.91
42603;BME280;28233;55.748;48.752;2023-03-01T02:35:35;97145.50;;;-4.00;93.67
42603;BME280;28233;55.748;48.752;2023-03-01T02:37:41;97146.28;;;-4.00;93.90
42603;BME280;28233;55.748;48.752;2023-03-01T02:39:48;97156.53;;;-4.02;94.35
42603;BME280;28233;55.748;48.752;2023-03-01T02:41:54;97137.75;;;-4.02;93.69
42603;BME280;28233;55.748;48.752;2023-03-01T02:43:58;97141.16;;;-3.96;94.29
42603;BME280;28233;55.748;48.752;2023-03-01T02:46:08;97142.47;;;-3.94;94.12
42603;BME280;28233;55.748;48.752;2023-03-01T02:48:15;97137.63;;;-3.92;94.07
42603;BME280;28233;55.748;48.752;2023-03-01T02:51:13;97126.66;;;-3.95;94.14
42603;BME280;28233;55.748;48.752;2023-03-01T02:53:16;97134.22;;;-3.97;93.66
42603;BME280;28233;55.748;48.752;2023-03-01T02:55:22;97135.28;;;-3.98;94.25
42603;BME280;28233;55.748;48.752;2023-03-01T02:57:27;97136.66;;;-4.01;94.12
42603;BME280;28233;55.748;48.752;2023-03-01T02:59:32;97137.44;;;-4.00;94.04
42603;BME280;28233;55.748;48.752;2023-03-01T03:01:41;97135.84;;;-4.01;94.22
42603;BME280;28233;55.748;48.752;2023-03-01T03:03:44;97135.84;;;-4.01;93.91
42603;BME280;28233;55.748;48.752;2023-03-01T03:05:47;97138.53;;;-4.01;94.06
42603;BME280;28233;55.748;48.752;2023-03-01T03:07:50;97136.72;;;-4.06;93.77
42603;BME280;28233;55.748;48.752;2023-03-01T03:09:53;97141.56;;;-4.08;93.56
42603;BME280;28233;55.748;48.752;2023-03-01T03:11:56;97138.59;;;-4.07;94.02
42603;BME280;28233;55.748;48.752;2023-03-01T03:13:58;97142.59;;;-4.04;94.13
42603;BME280;28233;55.748;48.752;2023-03-01T03:16:02;97128.66;;;-4.06;94.37
42603;BME280;28233;55.748;48.752;2023-03-01T03:18:09;97132.72;;;-4.09;94.52
42603;BME280;28233;55.748;48.752;2023-03-01T03:20:14;97130.59;;;-4.12;94.40
42603;BME280;28233;55.748;48.752;2023-03-01T03:22:21;97136.25;;;-4.13;94.74
42603;BME280;28233;55.748;48.752;2023-03-01T03:24:24;97125.22;;;-4.12;94.49
42603;BME280;28233;55.748;48.752;2023-03-01T03:26:27;97124.72;;;-4.14;94.88
42603;BME280;28233;55.748;48.752;2023-03-01T03:28:35;97127.69;;;-4.15;95.07
42603;BME280;28233;55.748;48.752;2023-03-01T03:30:39;97134.63;;;-4.14;95.33
42603;BME280;28233;55.748;48.752;2023-03-01T03:32:44;97123.19;;;-4.20;94.92
42603;BME280;28233;55.748;48.752;2023-03-01T03:34:54;97134.69;;;-4.19;95.48
42603;BME280;28233;55.748;48.752;2023-03-01T03:36:57;97127.22;;;-4.22;95.35
42603;BME280;28233;55.748;48.752;2023-03-01T03:39:01;97132.53;;;-4.17;95.17
42603;BME280;28233;55.748;48.752;2023-03-01T03:41:06;97137.09;;;-4.18;95.31
42603;BME280;28233;55.748;48.752;2023-03-01T03:43:15;97142.22;;;-4.21;95.08
42603;BME280;28233;55.748;48.752;2023-03-01T03:45:18;97138.75;;;-4.22;95.29
42603;BME280;28233;55.748;48.752;2023-03-01T03:47:21;97123.44;;;-4.21;95.13
42603;BME280;28233;55.748;48.752;2023-03-01T03:49:24;97123.50;;;-4.27;95.69
42603;BME280;28233;55.748;48.752;2023-03-01T03:51:26;97137.97;;;-4.22;95.56
42603;BME280;28233;55.748;48.752;2023-03-01T03:53:29;97140.06;;;-4.19;96.06
42603;BME280;28233;55.748;48.752;2023-03-01T03:55:32;97136.59;;;-4.20;95.67
42603;BME280;28233;55.748;48.752;2023-03-01T03:57:40;97131.56;;;-4.27;95.66
42603;BME280;28233;55.748;48.752;2023-03-01T03:59:43;97133.97;;;-4.25;95.67
42603;BME280;28233;55.748;48.752;2023-03-01T04:01:46;97147.66;;;-4.27;95.44
42603;BME280;28233;55.748;48.752;2023-03-01T04:03:48;97128.09;;;-4.27;95.89
42603;BME280;28233;55.748;48.752;2023-03-01T04:05:52;97121.88;;;-4.22;95.98
42603;BME280;28233;55.748;48.752;2023-03-01T04:07:55;97122.44;;;-4.26;95.88
42603;BME280;28233;55.748;48.752;2023-03-01T04:10:06;97121.88;;;-4.22;95.46
42603;BME280;28233;55.748;48.752;2023-03-01T04:12:09;97123.97;;;-4.19;95.48
42603;BME280;28233;55.748;48.752;2023-03-01T04:14:12;97130.66;;;-4.17;95.33
42603;BME280;28233;55.748;48.752;2023-03-01T04:16:15;97131.44;;;-4.16;95.85
42603;BME280;28233;55.748;48.752;2023-03-01T04:18:20;97126.91;;;-4.16;95.41
42603;BME280;28233;55.748;48.752;2023-03-01T04:20:26;97130.09;;;-4.14;95.52
42603;BME280;28233;55.748;48.752;2023-03-01T04:22:29;97125.81;;;-4.15;95.45
42603;BME280;28233;55.748;48.752;2023-03-01T04:24:32;97122.25;;;-4.10;95.54
42603;BME280;28233;55.748;48.752;2023-03-01T04:26:35;97123.63;;;-4.13;95.89
42603;BME280;28233;55.748;48.752;2023-03-01T04:28:39;97135.94;;;-4.12;95.84
42603;BME280;28233;55.748;48.752;2023-03-01T04:30:45;97137.78;;;-4.07;95.75
42603;BME280;28233;55.748;48.752;2023-03-01T04:32:47;97138.81;;;-4.03;95.75
42603;BME280;28233;55.748;48.752;2023-03-01T04:34:50;97148.75;;;-4.04;95.79
42603;BME280;28233;55.748;48.752;2023-03-01T04:36:53;97144.75;;;-4.06;95.48
42603;BME280;28233;55.748;48.752;2023-03-01T04:38:56;97128.94;;;-4.08;95.96
42603;BME280;28233;55.748;48.752;2023-03-01T04:40:59;97148.22;;;-4.06;95.69
42603;BME280;28233;55.748;48.752;2023-03-01T04:43:03;97144.19;;;-4.03;96.03
42603;BME280;28233;55.748;48.752;2023-03-01T04:45:06;97142.88;;;-4.06;95.81
42603;BME280;28233;55.748;48.752;2023-03-01T04:47:15;97143.91;;;-4.01;96.08
42603;BME280;28233;55.748;48.752;2023-03-01T04:49:17;97168.50;;;-3.94;95.99
42603;BME280;28233;55.748;48.752;2023-03-01T04:51:20;97153.59;;;-3.82;95.95
42603;BME280;28233;55.748;48.752;2023-03-01T04:53:23;97155.66;;;-3.73;95.85
42603;BME280;28233;55.748;48.752;2023-03-01T04:55:27;97155.59;;;-3.68;95.38
42603;BME280;28233;55.748;48.752;2023-03-01T04:57:30;97154.44;;;-3.62;95.23
42603;BME280;28233;55.748;48.752;2023-03-01T04:59:33;97166.19;;;-3.58;94.48
42603;BME280;28233;55.748;48.752;2023-03-01T05:01:38;97153.97;;;-3.45;94.51
42603;BME280;28233;55.748;48.752;2023-03-01T05:03:45;97159.19;;;-3.35;94.50
42603;BME280;28233;55.748;48.752;2023-03-01T05:05:51;97168.19;;;-3.26;94.45
42603;BME280;28233;55.748;48.752;2023-03-01T05:07:58;97168.97;;;-3.25;93.68
42603;BME280;28233;55.748;48.752;2023-03-01T05:10:01;97166.88;;;-3.28;92.94
42603;BME280;28233;55.748;48.752;2023-03-01T05:12:04;97163.34;;;-3.24;93.16
42603;BME280;28233;55.748;48.752;2023-03-01T05:14:08;97186.13;;;-3.21;92.64
42603;BME280;28233;55.748;48.752;2023-03-01T05:16:12;97183.72;;;-3.23;92.02
42603;BME280;28233;55.748;48.752;2023-03-01T05:18:15;97170.66;;;-3.29;91.80
42603;BME280;28233;55.748;48.752;2023-03-01T05:20:18;97183.28;;;-3.30;91.83
42603;BME280;28233;55.748;48.752;2023-03-01T05:22:25;97177.13;;;-3.30;92.16
42603;BME280;28233;55.748;48.752;2023-03-01T05:24:28;97170.59;;;-3.43;90.94
42603;BME280;28233;55.748;48.752;2023-03-01T05:26:33;97176.81;;;-3.48;91.18
42603;BME280;28233;55.748;48.752;2023-03-01T05:28:37;97177.50;;;-3.61;90.33
42603;BME280;28233;55.748;48.752;2023-03-01T05:30:40;97183.22;;;-3.68;90.11
42603;BME280;28233;55.748;48.752;2023-03-01T05:32:49;97184.06;;;-3.72;90.07
42603;BME280;28233;55.748;48.752;2023-03-01T05:34:52;97201.28;;;-3.73;90.47
42603;BME280;28233;55.748;48.752;2023-03-01T05:36:54;97183.28;;;-3.73;89.98
42603;BME280;28233;55.748;48.752;2023-03-01T05:38:57;97185.97;;;-3.73;89.76
42603;BME280;28233;55.748;48.752;2023-03-01T05:41:00;97194.47;;;-3.66;90.42
42603;BME280;28233;55.748;48.752;2023-03-01T05:43:02;97196.28;;;-3.61;89.94
42603;BME280;28233;55.748;48.752;2023-03-01T05:45:08;97185.09;;;-3.68;90.04
42603;BME280;28233;55.748;48.752;2023-03-01T05:47:11;97195.66;;;-3.53;90.32
42603;BME280;28233;55.748;48.752;2023-03-01T05:49:14;97196.06;;;-3.41;89.96
42603;BME280;28233;55.748;48.752;2023-03-01T05:51:17;97205.06;;;-3.31;89.26
42603;BME280;28233;55.748;48.752;2023-03-01T05:53:20;97195.28;;;-3.22;89.07
42603;BME280;28233;55.748;48.752;2023-03-01T05:55:26;97205.28;;;-3.09;88.65
42603;BME280;28233;55.748;48.752;2023-03-01T05:57:30;97199.28;;;-3.01;89.39
42603;BME280;28233;55.748;48.752;2023-03-01T05:59:33;97193.09;;;-2.82;89.07
42603;BME280;28233;55.748;48.752;2023-03-01T06:01:35;97199.56;;;-2.83;88.42
42603;BME280;28233;55.748;48.752;2023-03-01T06:03:38;97207.69;;;-2.88;87.97
42603;BME280;28233;55.748;48.752;2023-03-01T06:05:42;97204.16;;;-3.03;88.10
42603;BME280;28233;55.748;48.752;2023-03-01T06:07:45;97198.00;;;-3.27;86.80
42603;BME280;28233;55.748;48.752;2023-03-01T06:09:47;97212.31;;;-3.32;86.57
42603;BME280;28233;55.748;48.752;2023-03-01T06:11:50;97216.72;;;-3.41;86.00
42603;BME280;28233;55.748;48.752;2023-03-01T06:13:53;97218.91;;;-3.43;85.94
42603;BME280;28233;55.748;48.752;2023-03-01T06:15:55;97214.75;;;-3.54;85.90
42603;BME280;28233;55.748;48.752;2023-03-01T06:17:58;97230.47;;;-3.72;85.57
42603;BME280;28233;55.748;48.752;2023-03-01T06:20:01;97229.16;;;-3.74;86.05
42603;BME280;28233;55.748;48.752;2023-03-01T06:22:04;97229.03;;;-3.83;84.97
42603;BME280;28233;55.748;48.752;2023-03-01T06:24:07;97223.53;;;-3.97;85.25
42603;BME280;28233;55.748;48.752;2023-03-01T06:26:10;97228.38;;;-3.99;84.80
42603;BME280;28233;55.748;48.752;2023-03-01T06:28:13;97225.56;;;-3.89;85.40
42603;BME280;28233;55.748;48.752;2023-03-01T06:30:18;97223.47;;;-3.92;84.43
42603;BME280;28233;55.748;48.752;2023-03-01T06:32:21;97226.59;;;-3.85;83.83
42603;BME280;28233;55.748;48.752;2023-03-01T06:34:24;97228.63;;;-3.71;83.32
42603;BME280;28233;55.748;48.752;2023-03-01T06:36:27;97234.19;;;-3.68;82.75
42603;BME280;28233;55.748;48.752;2023-03-01T06:38:30;97231.25;;;-3.66;82.50
42603;BME280;28233;55.748;48.752;2023-03-01T06:40:33;97218.63;;;-3.66;81.99
42603;BME280;28233;55.748;48.752;2023-03-01T06:42:39;97225.88;;;-3.66;82.44
42603;BME280;28233;55.748;48.752;2023-03-01T06:44:42;97239.13;;;-3.75;83.43
42603;BME280;28233;55.748;48.752;2023-03-01T06:46:44;97234.31;;;-3.78;84.39
42603;BME280;28233;55.748;48.752;2023-03-01T06:48:47;97229.75;;;-3.77;85.91
42603;BME280;28233;55.748;48.752;2023-03-01T06:50:50;97228.16;;;-3.78;87.33
42603;BME280;28233;55.748;48.752;2023-03-01T06:52:56;97239.28;;;-3.90;88.45
42603;BME280;28233;55.748;48.752;2023-03-01T06:54:59;97231.91;;;-3.79;89.69
42603;BME280;28233;55.748;48.752;2023-03-01T06:57:01;97231.41;;;-3.82;90.51
42603;BME280;28233;55.748;48.752;2023-03-01T06:59:04;97229.03;;;-3.88;90.38
42603;BME280;28233;55.748;48.752;2023-03-01T07:01:08;97232.84;;;-3.65;91.53
42603;BME280;28233;55.748;48.752;2023-03-01T07:03:11;97229.28;;;-3.36;91.51
42603;BME280;28233;55.748;48.752;2023-03-01T07:05:14;97227.66;;;-3.13;89.48
42603;BME280;28233;55.748;48.752;2023-03-01T07:07:17;97214.81;;;-2.98;88.02
42603;BME280;28233;55.748;48.752;2023-03-01T07:09:21;97215.47;;;-2.87;86.00
42603;BME280;28233;55.748;48.752;2023-03-01T07:11:24;97225.91;;;-2.85;84.10
42603;BME280;28233;55.748;48.752;2023-03-01T07:13:27;97239.50;;;-2.95;80.08
42603;BME280;28233;55.748;48.752;2023-03-01T07:15:30;97216.34;;;-3.10;78.69
42603;BME280;28233;55.748;48.752;2023-03-01T07:17:33;97228.81;;;-3.20;77.47
42603;BME280;28233;55.748;48.752;2023-03-01T07:19:35;97221.72;;;-3.34;76.80
42603;BME280;28233;55.748;48.752;2023-03-01T07:21:38;97231.72;;;-3.16;77.55
42603;BME280;28233;55.748;48.752;2023-03-01T07:23:41;97235.28;;;-2.83;77.67
42603;BME280;28233;55.748;48.752;2023-03-01T07:25:43;97219.38;;;-2.60;75.68
42603;BME280;28233;55.748;48.752;2023-03-01T07:27:53;97227.94;;;-2.39;74.72
42603;BME280;28233;55.748;48.752;2023-03-01T07:29:56;97221.56;;;-2.29;71.40
42603;BME280;28233;55.748;48.752;2023-03-01T07:31:58;97221.34;;;-2.00;71.95
42603;BME280;28233;55.748;48.752;2023-03-01T07:34:01;97236.47;;;-1.72;71.50
42603;BME280;28233;55.748;48.752;2023-03-01T07:36:05;97214.31;;;-1.55;71.29
42603;BME280;28233;55.748;48.752;2023-03-01T07:38:08;97222.47;;;-1.32;72.20
42603;BME280;28233;55.748;48.752;2023-03-01T07:40:11;97227.75;;;-1.13;70.70
42603;BME280;28233;55.748;48.752;2023-03-01T07:42:14;97230.81;;;-0.92;70.76
42603;BME280;28233;55.748;48.752;2023-03-01T07:44:17;97236.28;;;-0.83;68.62
42603;BME280;28233;55.748;48.752;2023-03-01T07:46:19;97227.81;;;-0.91;65.66
42603;BME280;28233;55.748;48.752;2023-03-01T07:48:22;97240.00;;;-0.93;66.11
42603;BME280;28233;55.748;48.752;2023-03-01T07:50:25;97214.63;;;-0.92;65.91
42603;BME280;28233;55.748;48.752;2023-03-01T07:52:28;97231.78;;;-0.74;66.52
42603;BME280;28233;55.748;48.752;2023-03-01T07:54:31;97240.16;;;-0.76;64.02
42603;BME280;28233;55.748;48.752;2023-03-01T07:56:33;97232.59;;;-0.88;64.12
42603;BME280;28233;55.748;48.752;2023-03-01T07:58:41;97222.72;;;-0.92;64.19
42603;BME280;28233;55.748;48.752;2023-03-01T08:00:44;97232.16;;;-1.03;64.00
42603;BME280;28233;55.748;48.752;2023-03-01T08:02:47;97230.56;;;-1.18;64.87
42603;BME280;28233;55.748;48.752;2023-03-01T08:04:49;97233.34;;;-1.23;65.42
42603;BME280;28233;55.748;48.752;2023-03-01T08:06:53;97238.06;;;-1.57;64.33
42603;BME280;28233;55.748;48.752;2023-03-01T08:08:56;97242.91;;;-1.73;66.47
42603;BME280;28233;55.748;48.752;2023-03-01T08:11:00;97239.41;;;-1.87;68.03
42603;BME280;28233;55.748;48.752;2023-03-01T08:13:03;97253.16;;;-1.88;71.03
42603;BME280;28233;55.748;48.752;2023-03-01T08:15:06;97253.44;;;-2.04;71.97
42603;BME280;28233;55.748;48.752;2023-03-01T08:17:09;97245.50;;;-2.28;74.10
42603;BME280;28233;55.748;48.752;2023-03-01T08:19:12;97257.44;;;-2.53;74.14
42603;BME280;28233;55.748;48.752;2023-03-01T08:21:17;97250.47;;;-2.35;75.48
42603;BME280;28233;55.748;48.752;2023-03-01T08:23:20;97244.91;;;-2.25;73.95
42603;BME280;28233;55.748;48.752;2023-03-01T08:25:22;97248.53;;;-2.16;74.51
42603;BME280;28233;55.748;48.752;2023-03-01T08:27:25;97238.84;;;-2.17;73.63
42603;BME280;28233;55.748;48.752;2023-03-01T08:29:30;97251.94;;;-1.96;74.32
42603;BME280;28233;55.748;48.752;2023-03-01T08:31:36;97256.97;;;-1.76;73.53
42603;BME280;28233;55.748;48.752;2023-03-01T08:33:39;97246.91;;;-1.70;72.23
42603;BME280;28233;55.748;48.752;2023-03-01T08:35:42;97259.19;;;-1.64;72.70
42603;BME280;28233;55.748;48.752;2023-03-01T08:37:45;97246.31;;;-1.53;73.93
42603;BME280;28233;55.748;48.752;2023-03-01T08:39:48;97258.41;;;-1.37;75.13
42603;BME280;28233;55.748;48.752;2023-03-01T08:41:51;97252.81;;;-1.26;75.62
42603;BME280;28233;55.748;48.752;2023-03-01T08:43:54;97258.09;;;-1.21;75.78
42603;BME280;28233;55.748;48.752;2023-03-01T08:46:01;97253.09;;;-1.00;76.08
42603;BME280;28233;55.748;48.752;2023-03-01T08:48:04;97255.44;;;-0.71;74.38
42603;BME280;28233;55.748;48.752;2023-03-01T08:50:07;97251.63;;;-0.34;73.50
42603;BME280;28233;55.748;48.752;2023-03-01T08:52:09;97250.94;;;-0.17;71.55
42603;BME280;28233;55.748;48.752;2023-03-01T08:54:17;97257.09;;;-0.25;70.82
42603;BME280;28233;55.748;48.752;2023-03-01T08:56:21;97247.75;;;-0.19;71.33
42603;BME280;28233;55.748;48.752;2023-03-01T08:58:24;97255.94;;;-0.33;69.94
42603;BME280;28233;55.748;48.752;2023-03-01T09:00:26;97257.75;;;-0.19;70.34
42603;BME280;28233;55.748;48.752;2023-03-01T09:02:30;97258.91;;;0.11;68.63
42603;BME280;28233;55.748;48.752;2023-03-01T09:04:33;97261.09;;;0.09;68.59
42603;BME280;28233;55.748;48.752;2023-03-01T09:06:36;97261.66;;;0.19;68.54
42603;BME280;28233;55.748;48.752;2023-03-01T09:08:49;97258.69;;;-0.02;67.94
42603;BME280;28233;55.748;48.752;2023-03-01T09:10:52;97259.03;;;-0.17;68.93
42603;BME280;28233;55.748;48.752;2023-03-01T09:12:55;97259.22;;;-0.36;68.77
42603;BME280;28233;55.748;48.752;2023-03-01T09:14:57;97272.50;;;-0.62;69.36
42603;BME280;28233;55.748;48.752;2023-03-01T09:17:00;97252.34;;;-0.78;69.55
42603;BME280;28233;55.748;48.752;2023-03-01T09:19:05;97261.28;;;-0.92;69.76
42603;BME280;28233;55.748;48.752;2023-03-01T09:21:13;97250.91;;;-1.12;68.58
42603;BME280;28233;55.748;48.752;2023-03-01T09:23:16;97262.72;;;-1.36;69.14
42603;BME280;28233;55.748;48.752;2023-03-01T09:25:18;97259.50;;;-1.38;69.21
42603;BME280;28233;55.748;48.752;2023-03-01T09:27:21;97263.50;;;-1.35;68.20
42603;BME280;28233;55.748;48.752;2023-03-01T09:29:24;97280.56;;;-1.40;66.72
42603;BME280;28233;55.748;48.752;2023-03-01T09:31:26;97273.66;;;-1.32;66.38
42603;BME280;28233;55.748;48.752;2023-03-01T09:33:31;97278.75;;;-1.31;65.05
42603;BME280;28233;55.748;48.752;2023-03-01T09:35:34;97282.53;;;-1.18;66.01
42603;BME280;28233;55.748;48.752;2023-03-01T09:37:37;97275.19;;;-1.26;65.09
42603;BME280;28233;55.748;48.752;2023-03-01T09:39:40;97269.56;;;-1.30;64.36
42603;BME280;28233;55.748;48.752;2023-03-01T09:42:04;97271.06;;;-1.37;63.65
42603;BME280;28233;55.748;48.752;2023-03-01T09:44:27;97273.66;;;-1.46;64.01
42603;BME280;28233;55.748;48.752;2023-03-01T09:46:40;97282.72;;;-1.56;63.83
42603;BME280;28233;55.748;48.752;2023-03-01T09:50:46;97296.00;;;-1.59;65.49
42603;BME280;28233;55.748;48.752;2023-03-01T09:53:18;97282.59;;;-1.78;64.89
42603;BME280;28233;55.748;48.752;2023-03-01T09:57:51;97283.28;;;-1.86;63.87
42603;BME280;28233;55.748;48.752;2023-03-01T10:02:37;97279.66;;;-1.96;64.16
42603;BME280;28233;55.748;48.752;2023-03-01T10:04:52;97296.34;;;-1.80;63.87
42603;BME280;28233;55.748;48.752;2023-03-01T10:09:16;97280.09;;;-1.75;64.23
42603;BME280;28233;55.748;48.752;2023-03-01T10:11:22;97293.56;;;-1.75;62.87
42603;BME280;28233;55.748;48.752;2023-03-01T10:13:42;97283.13;;;-1.76;62.54
42603;BME280;28233;55.748;48.752;2023-03-01T10:15:55;97281.72;;;-1.74;61.17
42603;BME280;28233;55.748;48.752;2023-03-01T10:18:04;97291.09;;;-1.71;60.39
42603;BME280;28233;55.748;48.752;2023-03-01T10:20:26;97292.09;;;-1.67;60.34
42603;BME280;28233;55.748;48.752;2023-03-01T10:22:30;97268.34;;;-1.65;61.84
42603;BME280;28233;55.748;48.752;2023-03-01T10:24:35;97291.00;;;-1.66;61.06
42603;BME280;28233;55.748;48.752;2023-03-01T10:26:54;97300.25;;;-1.72;61.38
42603;BME280;28233;55.748;48.752;2023-03-01T10:31:04;97310.19;;;-1.86;61.47
42603;BME280;28233;55.748;48.752;2023-03-01T10:33:37;97315.25;;;-1.99;59.54
42603;BME280;28233;55.748;48.752;2023-03-01T10:35:42;97295.38;;;-2.03;60.47
42603;BME280;28233;55.748;48.752;2023-03-01T10:38:08;97305.06;;;-2.02;59.96
42603;BME280;28233;55.748;48.752;2023-03-01T10:40:12;97311.94;;;-1.96;61.28
42603;BME280;28233;55.748;48.752;2023-03-01T10:42:27;97308.06;;;-2.03;59.44
42603;BME280;28233;55.748;48.752;2023-03-01T10:44:42;97312.31;;;-2.16;59.57
42603;BME280;28233;55.748;48.752;2023-03-01T10:46:45;97307.25;;;-2.04;60.49
42603;BME280;28233;55.748;48.752;2023-03-01T10:49:06;97302.06;;;-2.00;59.61
42603;BME280;28233;55.748;48.752;2023-03-01T10:51:17;97299.78;;;-2.07;59.67
42603;BME280;28233;55.748;48.752;2023-03-01T10:53:23;97338.88;;;-2.15;59.88
42603;BME280;28233;55.748;48.752;2023-03-01T10:55:35;97303.50;;;-2.22;59.19
42603;BME280;28233;55.748;48.752;2023-03-01T10:57:39;97322.69;;;-2.28;60.02
42603;BME280;28233;55.748;48.752;2023-03-01T10:59:44;97341.03;;;-2.30;60.89
42603;BME280;28233;55.748;48.752;2023-03-01T11:02:02;97315.66;;;-2.43;60.51
42603;BME280;28233;55.748;48.752;2023-03-01T11:04:16;97331.00;;;-2.44;62.40
42603;BME280;28233;55.748;48.752;2023-03-01T11:06:21;97333.38;;;-2.42;61.31